Time;durP1;ratioP1;P1;durP2;ratioP2;P2;SDS_P1;SDS_P2;PMS_P1;PMS_P2;Temp;Humidity;BMP_temperature;BMP_pressure;BME280_temperature;BME280_humidity;BME280_pressure;Samples;Min_cycle;Max_cycle;Signal;HPM_P1;HPM_P2
2022/01/24 00:01:40;;;;;;;0.20;0.20;;;;;;;;;;5065467;28;20098;-62
2022/01/24 00:04:07;;;;;;;0.10;0.10;;;;;;;;;;5081119;28;20452;-63
2022/01/24 00:06:33;;;;;;;4.30;2.35;;;;;;;;;;5082486;28;20480;-63
2022/01/24 00:08:59;;;;;;;2.67;1.92;;;;;;;;;;5063722;28;20028;-64
2022/01/24 00:11:38;;;;;;;2.28;1.35;;;;;;;;;;5058360;28;20032;-62
2022/01/24 00:27:19;;;;;;;0.38;0.38;;;;;;;;;;5093598;28;20032;-62
2022/01/24 00:29:44;;;;;;;0.10;0.10;;;;;;;;;;5093735;28;20387;-62
2022/01/24 00:32:10;;;;;;;13.13;8.75;;;;;;;;;;5075511;28;20487;-62
2022/01/24 00:34:36;;;;;;;4.25;3.35;;;;;;;;;;5058723;28;20085;-62
2022/01/24 00:37:02;;;;;;;6.07;4.03;;;;;;;;;;5058778;28;20024;-62
2022/01/24 00:39:27;;;;;;;5.20;2.92;;;;;;;;;;5075414;28;20471;-62
2022/01/24 00:44:45;;;;;;;1.35;1.23;;;;;;;;;;5075306;28;20483;-62
2022/01/24 00:47:28;;;;;;;0.45;0.45;;;;;;;;;;5058763;28;20035;-62
2022/01/24 00:55:19;;;;;;;0.10;0.10;;;;;;;;;;5054863;28;20060;-61
2022/01/24 00:57:44;;;;;;;0.10;0.10;;;;;;;;;;5073193;28;20056;-63
2022/01/24 01:00:10;;;;;;;0.10;0.10;;;;;;;;;;5072884;28;20043;-62
2022/01/24 01:02:35;;;;;;;0.75;0.75;;;;;;;;;;5092025;28;20031;-62
2022/01/24 01:07:57;;;;;;;1.75;1.17;;;;;;;;;;5064314;28;20047;-62
2022/01/24 01:18:11;;;;;;;2.47;1.88;;;;;;;;;;5073139;28;20058;-61
2022/01/24 01:18:43;;;;;;;1.17;0.90;;;;;;;;;;5069733;28;20081;-62
2022/01/24 01:21:11;;;;;;;5.35;2.75;;;;;;;;;;5092978;28;20067;-62
2022/01/24 01:23:39;;;;;;;3.85;2.78;;;;;;;;;;5058044;28;20395;-62
2022/01/24 01:26:10;;;;;;;0.85;0.68;;;;;;;;;;5058001;28;20115;-61
2022/01/24 01:28:38;;;;;;;9.55;4.43;;;;;;;;;;5092562;28;20036;-62
2022/01/24 01:31:10;;;;;;;0.45;0.45;;;;;;;;;;5074629;28;20020;-62
2022/01/24 01:52:46;;;;;;;4.70;4.45;;;;;;;;;;5082020;28;20095;-62
2022/01/24 01:55:26;;;;;;;3.75;3.50;;;;;;;;;;5072032;28;20044;-64
2022/01/24 01:57:51;;;;;;;;;;;;;;;;;;5054667;28;20037;-60
2022/01/24 02:00:17;;;;;;;0.85;0.85;;;;;;;;;;5072421;28;19919;-62
2022/01/24 02:02:43;;;;;;;0.20;0.20;;;;;;;;;;5072504;28;20187;-63
2022/01/24 02:05:08;;;;;;;0.30;0.30;;;;;;;;;;5072198;28;20481;-62
2022/01/24 02:07:43;;;;;;;0.28;0.28;;;;;;;;;;5037585;28;20035;-62
2022/01/24 02:10:09;;;;;;;1.73;1.63;;;;;;;;;;5053985;28;20040;-62
2022/01/24 02:12:35;;;;;;;0.95;0.95;;;;;;;;;;5071745;28;20020;-62
2022/01/24 02:15:01;;;;;;;4.88;3.85;;;;;;;;;;5054004;28;20052;-62
2022/01/24 02:21:07;;;;;;;7.18;2.85;;;;;;;;;;5010223;28;20085;-63
2022/01/24 02:23:38;;;;;;;3.45;2.80;;;;;;;;;;5071898;28;20482;-62
2022/01/24 02:26:08;;;;;;;1.52;1.42;;;;;;;;;;5037310;28;20036;-61
2022/01/24 02:31:44;;;;;;;0.10;0.10;;;;;;;;;;5058496;28;20080;-61
2022/01/24 02:34:19;;;;;;;0.10;0.10;;;;;;;;;;5054077;28;20029;-62
2022/01/24 02:36:45;;;;;;;0.47;0.47;;;;;;;;;;5037203;28;20047;-61
2022/01/24 02:50:49;;;;;;;0.30;0.30;;;;;;;;;;5057157;28;20455;-62
2022/01/24 02:53:15;;;;;;;0.10;0.10;;;;;;;;;;5074813;28;20032;-63
2022/01/24 02:55:40;;;;;;;0.10;0.10;;;;;;;;;;5056910;28;20032;-62
2022/01/24 02:58:06;;;;;;;0.10;0.10;;;;;;;;;;5056755;28;20056;-63
2022/01/24 03:00:32;;;;;;;2.80;2.70;;;;;;;;;;5074792;28;20036;-63
2022/01/24 03:02:58;;;;;;;0.55;0.55;;;;;;;;;;5040346;28;20442;-63
2022/01/24 03:05:24;;;;;;;0.10;0.10;;;;;;;;;;5074906;28;20024;-63
2022/01/24 03:07:49;;;;;;;2.10;1.40;;;;;;;;;;5074857;28;20028;-63
2022/01/24 03:10:25;;;;;;;0.80;0.80;;;;;;;;;;5074602;28;20392;-63
2022/01/24 03:13:09;;;;;;;4.85;1.63;;;;;;;;;;5074649;28;20055;-63
2022/01/24 03:15:35;;;;;;;0.10;0.10;;;;;;;;;;5040034;28;20043;-61
2022/01/24 03:18:01;;;;;;;0.73;0.68;;;;;;;;;;5039975;28;20109;-62
2022/01/24 03:20:26;;;;;;;0.10;0.10;;;;;;;;;;5056699;28;20464;-61
2022/01/24 03:22:52;;;;;;;9.43;3.10;;;;;;;;;;5074399;28;20044;-61
2022/01/24 03:25:17;;;;;;;5.85;3.90;;;;;;;;;;5074397;28;20541;-60
2022/01/24 03:27:43;;;;;;;5.43;3.47;;;;;;;;;;5074219;28;20041;-62
2022/01/24 03:30:09;;;;;;;15.30;3.47;;;;;;;;;;5056428;28;20033;-61
2022/01/24 03:32:34;;;;;;;7.88;4.38;;;;;;;;;;5074561;28;20028;-62
2022/01/24 03:35:00;;;;;;;0.10;0.10;;;;;;;;;;5074386;28;20595;-61
2022/01/24 03:37:25;;;;;;;0.98;0.95;;;;;;;;;;5074359;28;20119;-62
2022/01/24 03:39:51;;;;;;;0.10;0.10;;;;;;;;;;5074071;28;20032;-64
2022/01/24 03:42:16;;;;;;;0.10;0.10;;;;;;;;;;5074034;28;20029;-62
2022/01/24 03:44:44;;;;;;;0.10;0.10;;;;;;;;;;5056229;28;20506;-63
2022/01/24 03:47:41;;;;;;;0.15;0.15;;;;;;;;;;5039624;28;20033;-62
2022/01/24 03:50:16;;;;;;;0.68;0.68;;;;;;;;;;5073954;28;20024;-62
2022/01/24 03:52:43;;;;;;;0.10;0.10;;;;;;;;;;5074323;28;20039;-63
2022/01/24 03:55:08;;;;;;;0.10;0.10;;;;;;;;;;5073866;28;20032;-62
2022/01/24 03:57:34;;;;;;;0.20;0.20;;;;;;;;;;5056132;28;20543;-61
2022/01/24 04:00:00;;;;;;;0.10;0.10;;;;;;;;;;5072703;28;20074;-61
2022/01/24 04:02:26;;;;;;;0.10;0.10;;;;;;;;;;5073833;28;20138;-61
2022/01/24 04:04:52;;;;;;;0.10;0.10;;;;;;;;;;5055995;28;20020;-62
2022/01/24 04:07:18;;;;;;;0.10;0.10;;;;;;;;;;5055964;28;20047;-62
2022/01/24 04:09:44;;;;;;;1.10;1.10;;;;;;;;;;5055674;28;20041;-62
2022/01/24 04:12:10;;;;;;;0.10;0.10;;;;;;;;;;5073649;28;20499;-62
2022/01/24 04:14:52;;;;;;;0.10;0.10;;;;;;;;;;5073596;28;20024;-61
2022/01/24 04:22:16;;;;;;;0.20;0.20;;;;;;;;;;5055473;28;20033;-62
2022/01/24 04:24:42;;;;;;;2.67;2.58;;;;;;;;;;5039105;28;20028;-65
2022/01/24 04:27:08;;;;;;;3.70;3.00;;;;;;;;;;5039035;28;20035;-61
2022/01/24 04:29:34;;;;;;;0.10;0.10;;;;;;;;;;5038901;28;20041;-62
2022/01/24 04:32:00;;;;;;;0.10;0.10;;;;;;;;;;5073263;28;20042;-61
2022/01/24 04:34:25;;;;;;;0.68;0.68;;;;;;;;;;5055531;28;20033;-61
2022/01/24 04:36:51;;;;;;;0.10;0.10;;;;;;;;;;5073054;28;20037;-62
2022/01/24 04:39:17;;;;;;;2.55;2.05;;;;;;;;;;5073216;28;20078;-62
2022/01/24 04:41:46;;;;;;;0.10;0.10;;;;;;;;;;5073398;28;20036;-62
2022/01/24 04:47:02;;;;;;;0.20;0.20;;;;;;;;;;5055276;28;20036;-61
2022/01/24 04:52:33;;;;;;;0.90;0.90;;;;;;;;;;5073232;28;20086;-62
2022/01/24 04:54:59;;;;;;;1.67;1.15;;;;;;;;;;5055112;28;20476;-61
2022/01/24 04:57:25;;;;;;;3.28;2.97;;;;;;;;;;5055490;28;20024;-61
2022/01/24 04:59:52;;;;;;;2.63;2.38;;;;;;;;;;5038214;28;20039;-62
2022/01/24 05:02:18;;;;;;;0.40;0.40;;;;;;;;;;5055055;28;20033;-61
2022/01/24 05:04:44;;;;;;;0.20;0.20;;;;;;;;;;5073073;28;20021;-62
2022/01/24 05:07:10;;;;;;;0.10;0.10;;;;;;;;;;5055060;28;20056;-61
2022/01/24 05:25:55;;;;;;;1.08;1.08;;;;;;;;;;5058128;28;20044;-62
2022/01/24 05:28:20;;;;;;;0.80;0.80;;;;;;;;;;5065346;28;20043;-61
2022/01/24 05:30:46;;;;;;;1.58;1.02;;;;;;;;;;5082447;28;20379;-61
2022/01/24 05:33:12;;;;;;;0.65;0.65;;;;;;;;;;5054250;28;20036;-62
2022/01/24 05:35:38;;;;;;;0.10;0.10;;;;;;;;;;5037741;28;20033;-61
2022/01/24 05:38:03;;;;;;;0.10;0.10;;;;;;;;;;5072421;28;20032;-61
2022/01/24 05:40:29;;;;;;;0.10;0.10;;;;;;;;;;5072454;28;20071;-61
2022/01/24 05:42:54;;;;;;;0.10;0.10;;;;;;;;;;5054495;28;20476;-61
2022/01/24 05:45:20;;;;;;;7.70;5.38;;;;;;;;;;5072543;28;20031;-62
2022/01/24 05:47:45;;;;;;;0.45;0.45;;;;;;;;;;5072158;28;20086;-62
2022/01/24 05:50:11;;;;;;;0.10;0.10;;;;;;;;;;5037619;28;20055;-61
2022/01/24 05:52:36;;;;;;;0.10;0.10;;;;;;;;;;5072259;28;20055;-61
2022/01/24 05:55:03;;;;;;;0.10;0.10;;;;;;;;;;5072034;28;20116;-62
2022/01/24 05:57:28;;;;;;;0.10;0.10;;;;;;;;;;5054523;28;20032;-61
2022/01/24 05:59:54;;;;;;;0.10;0.10;;;;;;;;;;5054279;28;20032;-62
2022/01/24 06:02:20;;;;;;;0.10;0.10;;;;;;;;;;5054145;28;20497;-62
2022/01/24 06:04:45;;;;;;;0.10;0.10;;;;;;;;;;5037423;28;20048;-61
2022/01/24 06:07:11;;;;;;;0.10;0.10;;;;;;;;;;5072180;28;20118;-61
2022/01/24 06:09:36;;;;;;;0.15;0.15;;;;;;;;;;5072171;28;20028;-61
2022/01/24 06:12:02;;;;;;;0.10;0.10;;;;;;;;;;5053964;28;20086;-62
2022/01/24 06:14:27;;;;;;;0.10;0.10;;;;;;;;;;5071937;28;20074;-61
2022/01/24 06:16:53;;;;;;;0.10;0.10;;;;;;;;;;5072117;28;20028;-62
2022/01/24 06:19:18;;;;;;;2.78;2.58;;;;;;;;;;5071626;28;20044;-62
2022/01/24 06:21:45;;;;;;;0.35;0.35;;;;;;;;;;5071786;28;20353;-61
2022/01/24 06:24:11;;;;;;;0.10;0.10;;;;;;;;;;5058649;28;20032;-62
2022/01/24 06:26:40;;;;;;;0.10;0.10;;;;;;;;;;5063825;28;20029;-61
2022/01/24 06:29:07;;;;;;;0.10;0.10;;;;;;;;;;5046649;28;20498;-64
2022/01/24 06:31:32;;;;;;;0.40;0.40;;;;;;;;;;5065940;28;20032;-63
2022/01/24 06:33:58;;;;;;;4.03;3.75;;;;;;;;;;5084711;28;20077;-62
2022/01/24 06:36:24;;;;;;;0.10;0.10;;;;;;;;;;5085361;28;20044;-62
2022/01/24 06:38:50;;;;;;;0.25;0.25;;;;;;;;;;5067700;28;20028;-63
2022/01/24 06:41:21;;;;;;;0.13;0.13;;;;;;;;;;5074997;28;20031;-62
2022/01/24 06:43:46;;;;;;;2.83;2.72;;;;;;;;;;5077411;28;20040;-61
2022/01/24 06:46:12;;;;;;;0.85;0.85;;;;;;;;;;5076927;28;20043;-63
2022/01/24 06:48:37;;;;;;;0.10;0.10;;;;;;;;;;5086720;28;20028;-61
2022/01/24 06:51:05;;;;;;;3.95;3.72;;;;;;;;;;5064771;28;20025;-62
2022/01/24 06:53:31;;;;;;;0.20;0.20;;;;;;;;;;5074882;28;20651;-62
2022/01/24 06:55:56;;;;;;;0.20;0.20;;;;;;;;;;5083339;28;20028;-61
2022/01/24 06:58:22;;;;;;;0.15;0.15;;;;;;;;;;5077060;28;20365;-61
2022/01/24 07:00:47;;;;;;;0.10;0.10;;;;;;;;;;5094863;28;20028;-62
2022/01/24 07:03:13;;;;;;;0.10;0.10;;;;;;;;;;5094710;28;20031;-63
2022/01/24 07:05:38;;;;;;;0.10;0.10;;;;;;;;;;5095114;28;20035;-63
2022/01/24 07:08:04;;;;;;;0.10;0.10;;;;;;;;;;5094851;28;20024;-62
2022/01/24 07:10:29;;;;;;;0.10;0.10;;;;;;;;;;5094578;28;20047;-62
2022/01/24 07:12:55;;;;;;;0.10;0.10;;;;;;;;;;5081775;28;20036;-62
2022/01/24 07:15:28;;;;;;;0.10;0.10;;;;;;;;;;5115217;28;20081;-62
2022/01/24 07:18:13;;;;;;;0.10;0.10;;;;;;;;;;5079871;28;20023;-62
2022/01/24 07:20:38;;;;;;;0.10;0.10;;;;;;;;;;5115345;28;20375;-61
2022/01/24 07:23:04;;;;;;;0.63;0.63;;;;;;;;;;5115314;28;20023;-62
2022/01/24 07:25:29;;;;;;;0.20;0.20;;;;;;;;;;5115007;28;20110;-62
2022/01/24 07:27:55;;;;;;;0.20;0.20;;;;;;;;;;5114912;28;20031;-61
2022/01/24 07:30:20;;;;;;;0.20;0.20;;;;;;;;;;5114542;28;20035;-62
2022/01/24 07:32:46;;;;;;;0.20;0.20;;;;;;;;;;5079892;28;20391;-63
2022/01/24 07:35:11;;;;;;;1.20;1.15;;;;;;;;;;5100250;28;20059;-62
2022/01/24 07:37:37;;;;;;;0.20;0.20;;;;;;;;;;5083155;28;20036;-62
2022/01/24 07:40:06;;;;;;;0.13;0.13;;;;;;;;;;5074079;28;20486;-61
2022/01/24 07:45:16;;;;;;;0.20;0.20;;;;;;;;;;5056022;28;20048;-61
2022/01/24 07:47:42;;;;;;;0.22;0.22;;;;;;;;;;5050724;28;20023;-62
2022/01/24 07:50:08;;;;;;;0.47;0.47;;;;;;;;;;5083825;28;20121;-62
2022/01/24 07:52:34;;;;;;;0.10;0.10;;;;;;;;;;5055320;28;20035;-61
2022/01/24 07:55:00;;;;;;;0.17;0.17;;;;;;;;;;5075836;28;20403;-61
2022/01/24 07:57:25;;;;;;;3.20;3.10;;;;;;;;;;5083190;28;20035;-60
2022/01/24 07:59:51;;;;;;;0.10;0.10;;;;;;;;;;5084898;28;20081;-60
2022/01/24 08:02:16;;;;;;;0.10;0.10;;;;;;;;;;5084707;28;20495;-59
2022/01/24 08:04:41;;;;;;;1.65;1.65;;;;;;;;;;5072071;28;20111;-60
2022/01/24 08:07:07;;;;;;;0.10;0.10;;;;;;;;;;5055100;28;20549;-59
2022/01/24 08:09:32;;;;;;;0.20;0.20;;;;;;;;;;5073868;28;20032;-59
2022/01/24 08:11:58;;;;;;;3.45;3.15;;;;;;;;;;5073377;28;20028;-61
2022/01/24 08:14:24;;;;;;;0.20;0.20;;;;;;;;;;5073593;28;20028;-61
2022/01/24 08:16:54;;;;;;;6.93;6.32;;;;;;;;;;5072254;28;20033;-61
2022/01/24 08:19:22;;;;;;;0.30;0.30;;;;;;;;;;5054015;28;20043;-61
2022/01/24 08:21:48;;;;;;;1.35;1.33;;;;;;;;;;5073413;28;20395;-60
2022/01/24 08:24:13;;;;;;;0.30;0.30;;;;;;;;;;5073403;28;20025;-61
2022/01/24 08:26:40;;;;;;;0.32;0.32;;;;;;;;;;5073388;28;20041;-61
2022/01/24 08:29:10;;;;;;;0.30;0.30;;;;;;;;;;5055475;28;20081;-60
2022/01/24 08:31:41;;;;;;;0.20;0.20;;;;;;;;;;5073629;28;20029;-60
2022/01/24 08:34:07;;;;;;;0.20;0.20;;;;;;;;;;5073424;28;20028;-61
2022/01/24 08:36:33;;;;;;;0.22;0.22;;;;;;;;;;5055932;28;20035;-60
2022/01/24 08:39:07;;;;;;;0.30;0.30;;;;;;;;;;5073214;28;20040;-59
2022/01/24 08:46:51;;;;;;;0.30;0.30;;;;;;;;;;5071498;28;20044;-61
2022/01/24 08:49:19;;;;;;;0.77;0.77;;;;;;;;;;5072921;28;20027;-59
2022/01/24 08:51:47;;;;;;;4.72;4.32;;;;;;;;;;5072942;28;20457;-59
2022/01/24 08:54:15;;;;;;;0.28;0.28;;;;;;;;;;5073007;28;20017;-60
2022/01/24 08:56:45;;;;;;;0.45;0.45;;;;;;;;;;5080077;28;20047;-61
2022/01/24 08:59:11;;;;;;;0.22;0.22;;;;;;;;;;5093129;28;20090;-61
2022/01/24 09:01:36;;;;;;;0.30;0.30;;;;;;;;;;5093208;28;20495;-61
2022/01/24 09:04:05;;;;;;;0.40;0.40;;;;;;;;;;5093454;28;20098;-60
2022/01/24 09:06:30;;;;;;;0.30;0.30;;;;;;;;;;5091650;28;20028;-60
2022/01/24 09:08:59;;;;;;;0.30;0.30;;;;;;;;;;5074832;28;20039;-60
2022/01/24 09:11:30;;;;;;;0.32;0.32;;;;;;;;;;5092878;28;20089;-60
2022/01/24 09:13:56;;;;;;;0.60;0.60;;;;;;;;;;5092964;28;20032;-60
2022/01/24 09:16:22;;;;;;;0.20;0.20;;;;;;;;;;5093020;28;20039;-60
2022/01/24 09:18:47;;;;;;;1.40;1.30;;;;;;;;;;5092893;28;20032;-59
2022/01/24 09:21:13;;;;;;;0.28;0.28;;;;;;;;;;5092601;28;20044;-61
2022/01/24 09:23:38;;;;;;;1.05;1.02;;;;;;;;;;5093063;28;20020;-60
2022/01/24 09:26:04;;;;;;;0.30;0.30;;;;;;;;;;5093226;28;20035;-59
2022/01/24 09:28:29;;;;;;;0.30;0.30;;;;;;;;;;5092290;28;20044;-61
2022/01/24 09:30:55;;;;;;;0.30;0.30;;;;;;;;;;5082015;28;20021;-60
2022/01/24 09:33:21;;;;;;;1.02;0.95;;;;;;;;;;5079256;28;20423;-59
2022/01/24 09:35:46;;;;;;;0.20;0.20;;;;;;;;;;5076582;28;20400;-60
2022/01/24 09:38:12;;;;;;;2.35;2.15;;;;;;;;;;5089715;28;20031;-59
2022/01/24 09:40:38;;;;;;;23.15;11.27;;;;;;;;;;5092627;28;20111;-60
2022/01/24 09:43:04;;;;;;;3.92;2.63;;;;;;;;;;5092479;28;20019;-60
2022/01/24 09:45:30;;;;;;;0.35;0.35;;;;;;;;;;5092490;28;20036;-61
2022/01/24 09:47:56;;;;;;;1.00;0.73;;;;;;;;;;5092436;28;20457;-60
2022/01/24 09:50:21;;;;;;;5.22;2.08;;;;;;;;;;5082903;28;20388;-60
2022/01/24 09:52:48;;;;;;;1.80;1.17;;;;;;;;;;5070222;28;20028;-60
2022/01/24 09:55:16;;;;;;;3.47;3.17;;;;;;;;;;5085576;28;20032;-60
2022/01/24 09:57:42;;;;;;;1.20;0.88;;;;;;;;;;5085538;28;20479;-60
2022/01/24 10:00:10;;;;;;;1.55;1.45;;;;;;;;;;5094948;28;20035;-59
2022/01/24 10:02:39;;;;;;;0.20;0.20;;;;;;;;;;5076907;28;20078;-60
2022/01/24 10:05:19;;;;;;;9.35;3.47;;;;;;;;;;5093609;28;20383;-60
2022/01/24 10:07:54;;;;;;;2.42;1.55;;;;;;;;;;5093606;28;20024;-61
2022/01/24 10:10:32;;;;;;;2.92;2.20;;;;;;;;;;5082350;28;20037;-60
2022/01/24 10:16:29;;;;;;;0.50;0.50;;;;;;;;;;5056998;28;20086;-60
2022/01/24 10:19:07;;;;;;;0.40;0.40;;;;;;;;;;5077933;28;20103;-61
2022/01/24 10:21:39;;;;;;;0.25;0.25;;;;;;;;;;5086234;28;20032;-62
2022/01/24 10:24:05;;;;;;;0.50;0.50;;;;;;;;;;5086687;28;20037;-62
2022/01/24 10:26:33;;;;;;;0.40;0.40;;;;;;;;;;5092169;28;20165;-62
2022/01/24 10:28:58;;;;;;;1.65;1.17;;;;;;;;;;5088266;28;20114;-62
2022/01/24 10:31:29;;;;;;;0.30;0.30;;;;;;;;;;5075537;28;20051;-60
2022/01/24 10:33:55;;;;;;;0.20;0.20;;;;;;;;;;5056013;28;20551;-60
2022/01/24 10:36:36;;;;;;;0.40;0.40;;;;;;;;;;5084612;28;20040;-60
2022/01/24 10:39:13;;;;;;;0.20;0.20;;;;;;;;;;5094137;28;20040;-60
2022/01/24 10:41:53;;;;;;;0.30;0.30;;;;;;;;;;5075202;28;20411;-59
2022/01/24 10:44:33;;;;;;;4.95;1.88;;;;;;;;;;5093259;28;20035;-59
2022/01/24 10:47:12;;;;;;;0.30;0.30;;;;;;;;;;5093033;28;20031;-59
2022/01/24 10:49:37;;;;;;;0.30;0.30;;;;;;;;;;5092820;28;20043;-60
2022/01/24 10:52:10;;;;;;;0.30;0.30;;;;;;;;;;5092215;28;20036;-58
2022/01/24 10:54:35;;;;;;;0.35;0.35;;;;;;;;;;5092951;28;20044;-60
2022/01/24 10:57:01;;;;;;;0.30;0.30;;;;;;;;;;5095063;28;20040;-59
2022/01/24 10:59:26;;;;;;;0.30;0.30;;;;;;;;;;5094881;28;20036;-59
2022/01/24 11:01:53;;;;;;;0.20;0.20;;;;;;;;;;5094964;28;20349;-60
2022/01/24 11:04:19;;;;;;;0.20;0.20;;;;;;;;;;5095099;28;20086;-59
2022/01/24 11:06:47;;;;;;;0.20;0.20;;;;;;;;;;5094895;28;20032;-60
2022/01/24 11:09:15;;;;;;;0.20;0.20;;;;;;;;;;5078961;28;20563;-61
2022/01/24 11:11:42;;;;;;;0.25;0.25;;;;;;;;;;5072773;28;20274;-61
2022/01/24 11:14:09;;;;;;;0.20;0.20;;;;;;;;;;5072828;28;20051;-60
2022/01/24 11:16:36;;;;;;;1.77;1.42;;;;;;;;;;5076871;28;20066;-60
2022/01/24 11:19:04;;;;;;;4.30;1.77;;;;;;;;;;5073568;28;20056;-60
2022/01/24 11:21:33;;;;;;;1.02;0.98;;;;;;;;;;5085770;28;20044;-59
2022/01/24 11:24:03;;;;;;;0.30;0.30;;;;;;;;;;5079276;28;20357;-61
2022/01/24 11:26:30;;;;;;;0.52;0.50;;;;;;;;;;5092776;28;20032;-60
2022/01/24 11:28:55;;;;;;;0.20;0.20;;;;;;;;;;5091491;28;20027;-60
2022/01/24 11:31:25;;;;;;;0.30;0.30;;;;;;;;;;5091222;28;20130;-60
2022/01/24 11:34:00;;;;;;;0.30;0.30;;;;;;;;;;5069758;28;20035;-60
2022/01/24 11:36:36;;;;;;;0.30;0.30;;;;;;;;;;5092451;28;20036;-60
2022/01/24 11:39:03;;;;;;;0.20;0.20;;;;;;;;;;5086254;28;20036;-60
2022/01/24 11:41:33;;;;;;;4.18;2.85;;;;;;;;;;5092209;28;20531;-60
2022/01/24 11:44:07;;;;;;;1.50;1.40;;;;;;;;;;5092318;28;20032;-60
2022/01/24 11:46:35;;;;;;;7.90;1.75;;;;;;;;;;5090325;28;20545;-60
2022/01/24 11:49:04;;;;;;;4.30;2.28;;;;;;;;;;5075949;28;20107;-60
2022/01/24 11:51:32;;;;;;;0.30;0.30;;;;;;;;;;5074615;28;20036;-61
2022/01/24 11:53:58;;;;;;;5.30;5.00;;;;;;;;;;5071752;28;20031;-60
2022/01/24 11:56:25;;;;;;;2.83;2.17;;;;;;;;;;5071924;28;20040;-60
2022/01/24 11:59:10;;;;;;;1.00;0.98;;;;;;;;;;5072001;28;20039;-60
2022/01/24 12:01:38;;;;;;;3.13;1.88;;;;;;;;;;5079764;28;20036;-62
2022/01/24 12:04:04;;;;;;;2.47;1.75;;;;;;;;;;5091861;28;20028;-60
2022/01/24 12:06:29;;;;;;;0.52;0.52;;;;;;;;;;5093295;28;20044;-60
2022/01/24 12:09:02;;;;;;;1.13;0.98;;;;;;;;;;5091128;28;20016;-60
2022/01/24 12:11:33;;;;;;;0.40;0.40;;;;;;;;;;5070583;28;20040;-61
2022/01/24 12:14:24;;;;;;;0.20;0.20;;;;;;;;;;5076317;28;20032;-61
2022/01/24 12:16:50;;;;;;;0.20;0.20;;;;;;;;;;5091414;28;20138;-61
2022/01/24 12:19:27;;;;;;;3.58;2.03;;;;;;;;;;5093976;28;20103;-61
2022/01/24 12:21:53;;;;;;;0.75;0.75;;;;;;;;;;5092927;28;20061;-60
2022/01/24 12:24:21;;;;;;;0.30;0.30;;;;;;;;;;5075527;28;20036;-60
2022/01/24 12:26:48;;;;;;;0.50;0.50;;;;;;;;;;5093540;28;20036;-60
2022/01/24 12:29:18;;;;;;;0.43;0.43;;;;;;;;;;5093307;28;20038;-61
2022/01/24 12:31:45;;;;;;;1.05;1.02;;;;;;;;;;5089200;28;20373;-60
2022/01/24 12:34:10;;;;;;;3.88;1.67;;;;;;;;;;5082212;28;20411;-60
2022/01/24 12:36:51;;;;;;;0.70;0.70;;;;;;;;;;5087183;28;20037;-59
2022/01/24 12:39:19;;;;;;;0.43;0.43;;;;;;;;;;5093564;28;20032;-60
2022/01/24 12:41:48;;;;;;;0.80;0.80;;;;;;;;;;5093314;28;20111;-60
2022/01/24 12:47:06;;;;;;;2.47;0.80;;;;;;;;;;5073526;28;20058;-60
2022/01/24 12:49:32;;;;;;;0.20;0.20;;;;;;;;;;5072946;28;20430;-59
2022/01/24 12:52:02;;;;;;;0.20;0.20;;;;;;;;;;5073047;28;20103;-60
2022/01/24 12:54:29;;;;;;;0.93;0.70;;;;;;;;;;5077768;28;20040;-61
2022/01/24 12:56:59;;;;;;;0.40;0.40;;;;;;;;;;5089498;28;20031;-59
2022/01/24 12:59:24;;;;;;;;;;;;;;;;;;5090635;28;20056;-59
2022/01/24 13:01:52;;;;;;;0.50;0.37;;;;;;;;;;5076516;28;20541;-59
2022/01/24 13:04:18;;;;;;;1.98;1.50;;;;;;;;;;5070805;28;20067;-60
2022/01/24 13:06:46;;;;;;;2.58;1.58;;;;;;;;;;5089018;28;20512;-60
2022/01/24 13:09:19;;;;;;;0.20;0.20;;;;;;;;;;5075455;28;20032;-60
2022/01/24 13:11:47;;;;;;;0.50;0.50;;;;;;;;;;5052835;28;20029;-62
2022/01/24 13:14:30;;;;;;;1.02;0.77;;;;;;;;;;5072684;28;20043;-62
2022/01/24 13:22:39;;;;;;;0.73;0.55;;;;;;;;;;5072632;28;20040;-59
2022/01/24 13:25:16;;;;;;;0.20;0.20;;;;;;;;;;5071552;28;20079;-59
2022/01/24 13:27:41;;;;;;;0.45;0.45;;;;;;;;;;5072016;28;20063;-60
2022/01/24 13:30:09;;;;;;;0.35;0.35;;;;;;;;;;5072435;28;20113;-59
2022/01/24 13:32:41;;;;;;;0.82;0.82;;;;;;;;;;5054397;28;20047;-59
2022/01/24 13:35:17;;;;;;;0.40;0.40;;;;;;;;;;5072428;28;20036;-59
2022/01/24 13:37:43;;;;;;;0.20;0.20;;;;;;;;;;5080781;28;20430;-59
2022/01/24 13:40:09;;;;;;;0.38;0.38;;;;;;;;;;5081153;28;20036;-59
2022/01/24 13:42:35;;;;;;;0.40;0.40;;;;;;;;;;5072140;28;20072;-59
2022/01/24 13:45:00;;;;;;;1.85;0.43;;;;;;;;;;5071912;28;20478;-61
2022/01/24 13:47:26;;;;;;;0.20;0.20;;;;;;;;;;5072209;28;20039;-59
2022/01/24 13:49:51;;;;;;;1.67;1.58;;;;;;;;;;5072282;28;20435;-60
2022/01/24 13:52:20;;;;;;;2.53;0.75;;;;;;;;;;5072213;28;20503;-59
2022/01/24 13:54:46;;;;;;;0.52;0.52;;;;;;;;;;5072225;28;20067;-60
2022/01/24 13:57:16;;;;;;;1.10;1.00;;;;;;;;;;5071957;28;20028;-60
2022/01/24 13:59:42;;;;;;;0.10;0.10;;;;;;;;;;5054233;28;20047;-60
2022/01/24 14:02:22;;;;;;;0.10;0.10;;;;;;;;;;5072258;28;20033;-59
2022/01/24 14:04:53;;;;;;;0.20;0.20;;;;;;;;;;5072116;28;20499;-60
2022/01/24 14:07:22;;;;;;;0.20;0.20;;;;;;;;;;5073356;28;20036;-60
2022/01/24 14:09:49;;;;;;;;;;;;;;;;;;5082465;28;20111;-67
2022/01/24 14:12:20;;;;;;;0.10;0.10;;;;;;;;;;5044200;28;19935;-64
2022/01/24 14:14:57;;;;;;;0.20;0.20;;;;;;;;;;5037131;28;20045;-64
2022/01/24 14:19:55;;;;;;;0.35;0.28;;;;;;;;;;5091990;28;20051;-65
2022/01/24 14:22:23;;;;;;;;;;;;;;;;;;5073838;28;20032;-65
2022/01/24 14:24:56;;;;;;;2.53;1.67;;;;;;;;;;5089373;28;20398;-67
2022/01/24 14:27:40;;;;;;;0.20;0.20;;;;;;;;;;5068079;28;20071;-66
2022/01/24 14:30:08;;;;;;;0.25;0.25;;;;;;;;;;5069423;28;20081;-65
2022/01/24 14:32:38;;;;;;;0.20;0.20;;;;;;;;;;5034469;28;20029;-65
2022/01/24 14:35:08;;;;;;;0.20;0.20;;;;;;;;;;5034494;28;20530;-66
2022/01/24 14:37:33;;;;;;;;;;;;;;;;;;5044043;28;20032;-64
2022/01/24 14:39:58;;;;;;;0.20;0.20;;;;;;;;;;5077916;28;19912;-66
2022/01/24 14:42:43;;;;;;;0.30;0.30;;;;;;;;;;5082237;28;20758;-66
2022/01/24 14:45:09;;;;;;;0.20;0.20;;;;;;;;;;5079106;28;20388;-66
2022/01/24 14:47:35;;;;;;;0.10;0.10;;;;;;;;;;5039532;28;20037;-67
2022/01/24 14:50:00;;;;;;;0.20;0.20;;;;;;;;;;5074182;28;20033;-68
2022/01/24 14:52:27;;;;;;;0.25;0.25;;;;;;;;;;5074461;28;20021;-66
2022/01/24 14:54:52;;;;;;;0.13;0.13;;;;;;;;;;5075585;28;20391;-66
2022/01/24 14:57:18;;;;;;;0.10;0.10;;;;;;;;;;5094477;28;20038;-66
2022/01/24 14:59:44;;;;;;;1.27;1.27;;;;;;;;;;5094262;28;20039;-66
2022/01/24 15:02:11;;;;;;;0.45;0.43;;;;;;;;;;5059630;28;20020;-67
2022/01/24 15:04:36;;;;;;;0.10;0.10;;;;;;;;;;5094293;28;20589;-66
2022/01/24 15:07:02;;;;;;;0.20;0.20;;;;;;;;;;5094266;28;20032;-65
2022/01/24 15:09:29;;;;;;;0.13;0.13;;;;;;;;;;5094706;28;20028;-66
2022/01/24 15:11:56;;;;;;;0.10;0.10;;;;;;;;;;5059544;28;20036;-65
2022/01/24 15:14:29;;;;;;;0.10;0.10;;;;;;;;;;5059504;28;20490;-65
2022/01/24 15:27:15;;;;;;;0.20;0.20;;;;;;;;;;5075769;28;20071;-66
2022/01/24 15:29:41;;;;;;;0.10;0.10;;;;;;;;;;5094258;28;20028;-66
2022/01/24 15:32:07;;;;;;;0.20;0.20;;;;;;;;;;5094122;28;20032;-66
2022/01/24 15:34:35;;;;;;;0.10;0.10;;;;;;;;;;5059134;28;20467;-66
2022/01/24 15:37:02;;;;;;;0.10;0.10;;;;;;;;;;5059079;28;20487;-66
2022/01/24 15:39:28;;;;;;;0.10;0.10;;;;;;;;;;5093935;28;20043;-66
2022/01/24 15:42:01;;;;;;;0.95;0.95;;;;;;;;;;5059127;28;20130;-66
2022/01/24 15:49:40;;;;;;;0.10;0.10;;;;;;;;;;5059539;28;20085;-69
2022/01/24 15:52:06;;;;;;;0.10;0.10;;;;;;;;;;5075386;28;20525;-65
2022/01/24 15:54:32;;;;;;;0.13;0.13;;;;;;;;;;5058809;28;20028;-74
2022/01/24 15:59:42;;;;;;;0.10;0.10;;;;;;;;;;5093998;28;20031;-66
2022/01/24 16:02:07;;;;;;;0.20;0.20;;;;;;;;;;5093551;28;20051;-66
2022/01/24 16:04:33;;;;;;;0.20;0.20;;;;;;;;;;5093368;28;20038;-66
2022/01/24 16:07:00;;;;;;;0.20;0.20;;;;;;;;;;5058885;28;20118;-66
2022/01/24 16:09:25;;;;;;;0.20;0.20;;;;;;;;;;5058406;28;20024;-66
2022/01/24 16:11:50;;;;;;;0.10;0.10;;;;;;;;;;5093567;28;20034;-66
2022/01/24 16:14:16;;;;;;;0.20;0.20;;;;;;;;;;5093630;28;20028;-66
2022/01/24 16:16:42;;;;;;;0.20;0.20;;;;;;;;;;5093281;28;20036;-67
2022/01/24 16:19:08;;;;;;;0.63;0.50;;;;;;;;;;5075006;28;20032;-65
2022/01/24 16:21:47;;;;;;;2.33;1.70;;;;;;;;;;5058051;28;20123;-64
2022/01/24 16:26:46;;;;;;;0.30;0.30;;;;;;;;;;5093803;28;20107;-65
2022/01/24 16:29:15;;;;;;;1.98;1.88;;;;;;;;;;5058803;28;20122;-67
2022/01/24 16:31:43;;;;;;;13.03;1.80;;;;;;;;;;5060408;28;20036;-68
2022/01/24 16:34:09;;;;;;;0.20;0.20;;;;;;;;;;5093260;28;20028;-64
2022/01/24 16:36:35;;;;;;;0.22;0.22;;;;;;;;;;5093044;28;20040;-67
2022/01/24 16:39:05;;;;;;;0.20;0.20;;;;;;;;;;5093195;28;20028;-66
2022/01/24 16:47:09;;;;;;;0.28;0.28;;;;;;;;;;5075219;28;20110;-65
2022/01/24 16:49:39;;;;;;;0.50;0.50;;;;;;;;;;5074956;28;20028;-67
2022/01/24 16:52:06;;;;;;;2.17;2.08;;;;;;;;;;5074519;28;20040;-66
2022/01/24 16:54:32;;;;;;;0.20;0.20;;;;;;;;;;5074612;28;20070;-66
2022/01/24 16:56:57;;;;;;;0.20;0.20;;;;;;;;;;5074449;28;20404;-66
2022/01/24 16:59:23;;;;;;;0.70;0.70;;;;;;;;;;5074768;28;20028;-66
2022/01/24 17:01:50;;;;;;;0.55;0.55;;;;;;;;;;5091691;28;20515;-67
2022/01/24 17:04:15;;;;;;;0.30;0.30;;;;;;;;;;5056898;28;20028;-68
2022/01/24 17:06:41;;;;;;;0.20;0.20;;;;;;;;;;5092048;28;20499;-66
2022/01/24 17:09:08;;;;;;;0.17;0.17;;;;;;;;;;5074195;28;20032;-67
2022/01/24 17:11:35;;;;;;;0.73;0.73;;;;;;;;;;5074052;28;20613;-66